Time;durP1;ratioP1;P1;durP2;ratioP2;P2;SDS_P1;SDS_P2;PMS_P1;PMS_P2;Temp;Humidity;BMP_temperature;BMP_pressure;BME280_temperature;BME280_humidity;BME280_pressure;Samples;Min_cycle;Max_cycle;Signal;HPM_P1;HPM_P2
2022/06/04 00:00:50;;;;;;;0.75;0.75;;;22.50;92.70;;;;;;5052556;28;20044;-78
2022/06/04 00:03:17;;;;;;;0.70;0.70;;;22.50;93.00;;;;;;5052729;28;20496;-77
2022/06/04 00:05:46;;;;;;;1.27;0.93;;;22.40;93.20;;;;;;5050895;28;20115;-77
2022/06/04 00:08:12;;;;;;;1.02;0.90;;;22.30;93.60;;;;;;5052294;28;20487;-76
2022/06/04 00:16:12;;;;;;;0.77;0.77;;;22.10;94.30;;;;;;5052755;28;20071;-76
2022/06/04 00:18:40;;;;;;;1.42;1.00;;;22.10;94.70;;;;;;5052697;28;20037;-78
2022/06/04 00:21:06;;;;;;;1.40;0.85;;;22.00;95.00;;;;;;5052452;28;20113;-77
2022/06/04 00:23:32;;;;;;;1.15;0.90;;;22.00;95.10;;;;;;5051893;28;20025;-77
2022/06/04 00:26:00;;;;;;;1.65;1.00;;;22.00;95.20;;;;;;5052735;28;20033;-77
2022/06/04 00:28:28;;;;;;;1.20;1.00;;;22.00;95.40;;;;;;5051901;28;20037;-77
2022/06/04 00:30:57;;;;;;;1.80;1.15;;;22.00;95.40;;;;;;5052517;28;20434;-78
2022/06/04 00:33:23;;;;;;;0.70;0.60;;;22.00;95.40;;;;;;5054847;28;20029;-76
2022/06/04 00:35:51;;;;;;;0.80;0.80;;;22.00;95.40;;;;;;5051946;28;20070;-76
2022/06/04 00:38:19;;;;;;;1.30;0.80;;;22.00;95.30;;;;;;5052421;28;20048;-76
2022/06/04 00:40:45;;;;;;;1.30;1.20;;;22.00;95.30;;;;;;5051780;28;20029;-77
2022/06/04 00:43:11;;;;;;;0.93;0.85;;;22.00;95.30;;;;;;5052102;28;20058;-77
2022/06/04 00:45:36;;;;;;;1.27;0.98;;;22.00;95.30;;;;;;5051972;28;20102;-77
2022/06/04 00:48:08;;;;;;;1.20;1.10;;;21.90;95.20;;;;;;5052221;28;20033;-76
2022/06/04 00:50:37;;;;;;;1.30;0.85;;;22.00;95.20;;;;;;5051821;28;20036;-77
2022/06/04 00:53:05;;;;;;;3.25;1.30;;;21.90;95.20;;;;;;5052191;28;20025;-77
2022/06/04 00:56:07;;;;;;;1.17;1.08;;;22.00;95.20;;;;;;5051786;28;20029;-77
2022/06/04 00:58:36;;;;;;;1.20;1.00;;;22.00;95.10;;;;;;5026745;28;20041;-77
2022/06/04 01:01:29;;;;;;;1.15;1.00;;;22.00;95.00;;;;;;5057897;28;20143;-77
2022/06/04 01:03:54;;;;;;;1.05;0.95;;;22.10;94.80;;;;;;5071176;28;20218;-77
2022/06/04 01:06:37;;;;;;;1.02;1.00;;;22.00;94.70;;;;;;5071188;28;20035;-77
2022/06/04 01:09:28;;;;;;;1.08;0.82;;;22.10;94.60;;;;;;5071393;28;20099;-77
2022/06/04 01:12:26;;;;;;;1.42;1.30;;;22.10;94.50;;;;;;5071318;28;20028;-77
2022/06/04 01:15:00;;;;;;;1.13;1.02;;;22.10;94.50;;;;;;5070942;28;20476;-78
2022/06/04 01:17:44;;;;;;;0.82;0.82;;;22.10;94.60;;;;;;5071087;28;20020;-77
2022/06/04 01:20:28;;;;;;;1.58;1.10;;;22.10;94.60;;;;;;5071274;28;20034;-77
2022/06/04 01:23:17;;;;;;;1.00;0.93;;;22.00;94.50;;;;;;5071480;28;20025;-77
2022/06/04 01:25:58;;;;;;;2.08;0.88;;;22.00;94.60;;;;;;5071097;28;20059;-77
2022/06/04 01:28:26;;;;;;;1.40;1.17;;;21.90;94.70;;;;;;5070801;28;20033;-77
2022/06/04 01:30:57;;;;;;;2.92;1.20;;;21.90;94.80;;;;;;5071092;28;20504;-77
2022/06/04 01:33:38;;;;;;;0.85;0.82;;;21.90;95.00;;;;;;5071270;28;20021;-77
2022/06/04 01:36:18;;;;;;;1.08;0.98;;;21.80;95.10;;;;;;5071084;28;20024;-77
2022/06/04 01:38:49;;;;;;;1.20;1.00;;;21.80;95.20;;;;;;5070967;28;20033;-76
2022/06/04 01:41:24;;;;;;;0.85;0.85;;;21.80;95.40;;;;;;5071298;28;20052;-76
2022/06/04 01:43:55;;;;;;;0.98;0.90;;;21.80;95.50;;;;;;5070834;28;20341;-77
2022/06/04 01:46:38;;;;;;;1.83;1.13;;;21.80;95.40;;;;;;5071195;28;20041;-77
2022/06/04 01:49:26;;;;;;;1.10;1.00;;;21.70;95.60;;;;;;5070747;28;20039;-77
2022/06/04 01:51:58;;;;;;;1.27;1.13;;;21.70;95.60;;;;;;5070316;28;20372;-78
2022/06/04 01:54:28;;;;;;;1.33;1.10;;;21.70;95.90;;;;;;5070979;28;20056;-78
2022/06/04 01:57:01;;;;;;;0.88;0.82;;;21.60;95.90;;;;;;5070781;28;20035;-78
2022/06/04 01:59:42;;;;;;;1.35;1.00;;;21.60;95.90;;;;;;5070738;28;20033;-78
2022/06/04 02:02:12;;;;;;;;;;;21.60;96.10;;;;;;5071873;28;20464;-77
2022/06/04 02:04:44;;;;;;;1.20;1.10;;;21.50;96.20;;;;;;5071141;28;19936;-76
2022/06/04 02:07:30;;;;;;;3.67;1.17;;;21.50;96.30;;;;;;5071794;28;20651;-76
2022/06/04 02:10:31;;;;;;;1.02;1.02;;;21.40;96.40;;;;;;5073941;28;20032;-77
2022/06/04 02:13:01;;;;;;;1.52;0.80;;;21.30;96.70;;;;;;5075485;28;20048;-77
2022/06/04 02:15:34;;;;;;;1.60;1.08;;;21.30;96.80;;;;;;5075259;28;20028;-77
2022/06/04 02:18:02;;;;;;;1.95;1.67;;;21.30;96.80;;;;;;5074982;28;20024;-77
2022/06/04 02:20:28;;;;;;;1.20;1.10;;;21.20;96.90;;;;;;5075300;28;20063;-77
2022/06/04 02:22:54;;;;;;;1.17;0.80;;;21.20;97.00;;;;;;5074787;28;20040;-76
2022/06/04 02:25:21;;;;;;;0.88;0.88;;;21.20;97.00;;;;;;5075172;28;20056;-76
2022/06/04 02:27:49;;;;;;;1.40;1.05;;;21.10;97.10;;;;;;5074322;28;20105;-76
2022/06/04 02:30:15;;;;;;;0.80;0.77;;;21.10;97.10;;;;;;5071816;28;20443;-76
2022/06/04 02:33:06;;;;;;;0.93;0.80;;;21.10;97.30;;;;;;5074440;28;20032;-77
2022/06/04 02:35:48;;;;;;;0.80;0.80;;;21.10;97.40;;;;;;5075075;28;20056;-77
2022/06/04 02:38:24;;;;;;;0.95;0.88;;;21.10;97.30;;;;;;5073625;28;20107;-76
2022/06/04 02:41:07;;;;;;;0.85;0.85;;;21.00;97.50;;;;;;5074034;28;20028;-77
2022/06/04 02:43:42;;;;;;;1.08;0.88;;;21.10;97.60;;;;;;5074853;28;20043;-77
2022/06/04 02:46:40;;;;;;;1.27;0.80;;;21.00;97.60;;;;;;5074441;28;20048;-77
2022/06/04 02:49:25;;;;;;;1.13;1.00;;;21.00;97.60;;;;;;5074501;28;20511;-76
2022/06/04 02:51:54;;;;;;;0.80;0.80;;;21.00;97.60;;;;;;5074295;28;20488;-77
2022/06/04 02:54:44;;;;;;;0.80;0.80;;;21.00;97.70;;;;;;5074723;28;20027;-77
2022/06/04 02:57:13;;;;;;;2.15;1.05;;;21.00;97.60;;;;;;5074248;28;20423;-77
2022/06/04 02:59:40;;;;;;;1.73;1.05;;;21.00;97.60;;;;;;5071955;28;20043;-78
2022/06/04 03:02:10;;;;;;;1.00;0.90;;;21.00;97.80;;;;;;5074488;28;20052;-77
2022/06/04 03:04:49;;;;;;;0.90;0.85;;;21.00;97.60;;;;;;5074156;28;20037;-78
2022/06/04 03:07:16;;;;;;;1.05;0.95;;;21.00;97.60;;;;;;5074540;28;20043;-78
2022/06/04 03:09:44;;;;;;;1.13;0.95;;;21.00;97.50;;;;;;5067716;28;20020;-78
2022/06/04 03:12:11;;;;;;;0.85;0.82;;;21.00;97.50;;;;;;5062511;28;20063;-76
2022/06/04 03:14:37;;;;;;;1.42;1.05;;;21.00;97.60;;;;;;5064797;28;20370;-79
2022/06/04 03:17:06;;;;;;;1.48;0.90;;;21.00;97.40;;;;;;5062728;28;20021;-77
2022/06/04 03:19:32;;;;;;;1.10;0.95;;;21.10;97.40;;;;;;5064809;28;20081;-77
2022/06/04 03:21:59;;;;;;;0.80;0.80;;;21.10;97.20;;;;;;5060969;28;20096;-77
2022/06/04 03:24:26;;;;;;;1.00;0.85;;;21.10;97.30;;;;;;5059500;28;20389;-77
2022/06/04 03:26:51;;;;;;;1.27;0.88;;;21.10;97.20;;;;;;5062369;28;20028;-77
2022/06/04 03:29:17;;;;;;;0.95;0.80;;;21.10;97.10;;;;;;5062425;28;20036;-77
2022/06/04 03:31:43;;;;;;;1.75;0.90;;;21.10;97.00;;;;;;5062669;28;20055;-76
2022/06/04 03:34:09;;;;;;;1.13;0.90;;;21.20;96.90;;;;;;5061123;28;20150;-77
2022/06/04 03:36:35;;;;;;;0.85;0.85;;;21.20;97.00;;;;;;5072731;28;20031;-76
2022/06/04 03:39:01;;;;;;;0.75;0.75;;;21.20;96.80;;;;;;5072411;28;20043;-77
2022/06/04 03:41:27;;;;;;;1.33;0.82;;;21.20;96.70;;;;;;5072914;28;20024;-78
2022/06/04 03:43:53;;;;;;;1.50;0.70;;;21.20;96.60;;;;;;5073050;28;20020;-77
2022/06/04 03:46:20;;;;;;;0.68;0.68;;;21.20;96.60;;;;;;5073524;28;20036;-77
2022/06/04 03:48:45;;;;;;;0.93;0.90;;;21.20;96.60;;;;;;5073091;28;20421;-76
2022/06/04 03:51:11;;;;;;;1.65;0.90;;;21.20;96.60;;;;;;5072573;28;20125;-78
2022/06/04 03:53:37;;;;;;;1.23;0.90;;;21.20;96.60;;;;;;5073097;28;20052;-76
2022/06/04 03:56:02;;;;;;;1.45;0.90;;;21.20;96.40;;;;;;5072990;28;20028;-76
2022/06/04 03:58:30;;;;;;;1.10;1.00;;;21.30;96.30;;;;;;5073357;28;20089;-77
2022/06/04 04:00:57;;;;;;;1.00;0.90;;;21.30;96.30;;;;;;5072791;28;20465;-76
2022/06/04 04:03:23;;;;;;;1.23;1.00;;;21.30;96.30;;;;;;5072846;28;20029;-76
2022/06/04 04:05:54;;;;;;;2.15;1.20;;;21.30;96.10;;;;;;5072291;28;20059;-77
2022/06/04 04:08:22;;;;;;;;;;;21.40;96.20;;;;;;5071236;28;20060;-76
2022/06/04 04:10:48;;;;;;;2.38;1.10;;;21.40;96.30;;;;;;5071087;28;19948;-76
2022/06/04 04:13:16;;;;;;;1.10;0.90;;;21.50;95.90;;;;;;5063567;28;20076;-75
2022/06/04 04:15:42;;;;;;;1.17;0.80;;;21.50;95.70;;;;;;5052558;28;20029;-77
2022/06/04 04:18:09;;;;;;;0.80;0.80;;;21.60;95.40;;;;;;5052941;28;20029;-77
2022/06/04 04:20:39;;;;;;;1.17;1.08;;;21.70;95.20;;;;;;5051914;28;20098;-77
2022/06/04 04:23:06;;;;;;;0.77;0.77;;;21.80;94.80;;;;;;5070285;28;20020;-77
2022/06/04 04:25:33;;;;;;;0.95;0.70;;;21.90;94.10;;;;;;5070675;28;20021;-77
2022/06/04 04:27:59;;;;;;;1.23;1.10;;;22.00;93.60;;;;;;5055424;28;20033;-77
2022/06/04 04:30:28;;;;;;;0.63;0.60;;;22.10;93.20;;;;;;5062254;28;20430;-77
2022/06/04 04:32:54;;;;;;;0.80;0.80;;;22.30;92.80;;;;;;5059598;28;20032;-78
2022/06/04 04:35:26;;;;;;;1.15;0.93;;;22.40;92.20;;;;;;5064320;28;20028;-77
2022/06/04 04:37:53;;;;;;;1.10;0.82;;;22.50;91.50;;;;;;5072039;28;20020;-77
2022/06/04 04:40:21;;;;;;;0.80;0.80;;;22.60;90.90;;;;;;5072261;28;20492;-77
2022/06/04 04:42:50;;;;;;;1.00;0.73;;;22.60;90.90;;;;;;5056587;28;20040;-78
2022/06/04 04:45:18;;;;;;;1.08;0.98;;;22.70;90.50;;;;;;5052009;28;20060;-78
2022/06/04 04:47:45;;;;;;;3.92;0.75;;;22.70;90.80;;;;;;5051471;28;20466;-79
2022/06/04 04:50:15;;;;;;;1.40;0.90;;;22.90;90.20;;;;;;5052375;28;20033;-75
2022/06/04 04:52:41;;;;;;;1.33;0.90;;;22.90;88.90;;;;;;5072315;28;20032;-77
2022/06/04 04:55:07;;;;;;;1.73;0.85;;;23.00;88.70;;;;;;5070330;28;20029;-77
2022/06/04 04:57:32;;;;;;;3.00;0.80;;;23.20;87.70;;;;;;5069542;28;20453;-77
2022/06/04 04:59:58;;;;;;;1.10;0.73;;;23.40;86.60;;;;;;5051937;28;20523;-77
2022/06/04 05:02:24;;;;;;;0.80;0.80;;;23.50;85.10;;;;;;5052368;28;20033;-77
2022/06/04 05:04:49;;;;;;;1.35;0.90;;;23.70;84.00;;;;;;5051567;28;20116;-76
2022/06/04 05:07:15;;;;;;;0.90;0.80;;;23.90;82.10;;;;;;5051934;28;20037;-76
2022/06/04 05:09:41;;;;;;;1.05;0.70;;;24.10;81.40;;;;;;5052031;28;20091;-77
2022/06/04 05:12:08;;;;;;;1.08;0.90;;;24.30;79.90;;;;;;5051697;28;20056;-77
2022/06/04 05:14:35;;;;;;;1.52;0.80;;;24.50;78.30;;;;;;5051994;28;20568;-76
2022/06/04 05:17:01;;;;;;;0.93;0.68;;;24.70;77.40;;;;;;5051422;28;20025;-76
2022/06/04 05:19:26;;;;;;;2.55;1.08;;;24.90;76.00;;;;;;5051941;28;20033;-76
2022/06/04 05:21:52;;;;;;;0.82;0.70;;;25.10;74.30;;;;;;5051551;28;20036;-77
2022/06/04 05:24:19;;;;;;;1.23;0.70;;;25.20;73.80;;;;;;5051706;28;20469;-77
2022/06/04 05:26:46;;;;;;;2.47;0.88;;;25.40;72.90;;;;;;5051968;28;20082;-76
2022/06/04 05:29:12;;;;;;;1.30;0.70;;;25.50;71.30;;;;;;5051883;28;20033;-76
2022/06/04 05:31:39;;;;;;;1.23;0.70;;;25.70;69.80;;;;;;5051793;28;20492;-76
2022/06/04 05:34:05;;;;;;;1.27;0.80;;;25.90;69.10;;;;;;5051089;28;20162;-76
2022/06/04 05:36:31;;;;;;;1.23;0.88;;;26.00;68.40;;;;;;5051687;28;20033;-75
2022/06/04 05:38:57;;;;;;;1.40;0.93;;;26.20;67.90;;;;;;5051075;28;20078;-77
2022/06/04 05:41:23;;;;;;;1.23;0.82;;;26.40;66.90;;;;;;5054319;28;20104;-76
2022/06/04 05:43:48;;;;;;;0.93;0.88;;;26.60;66.00;;;;;;5072011;28;20103;-77
2022/06/04 05:46:15;;;;;;;3.17;0.55;;;26.80;65.20;;;;;;5075867;28;20044;-76
2022/06/04 05:48:45;;;;;;;0.55;0.52;;;27.00;64.10;;;;;;5075887;28;20028;-76
2022/06/04 05:51:14;;;;;;;1.52;0.80;;;27.30;63.70;;;;;;5075116;28;20052;-76
2022/06/04 05:53:40;;;;;;;1.48;0.50;;;27.50;62.40;;;;;;5075331;28;20361;-76
2022/06/04 05:56:29;;;;;;;0.57;0.57;;;27.80;60.80;;;;;;5075481;28;20461;-77
2022/06/04 05:59:01;;;;;;;0.90;0.70;;;28.10;59.80;;;;;;5074023;28;20429;-77
2022/06/04 06:01:29;;;;;;;0.70;0.70;;;28.20;59.80;;;;;;5075308;28;20036;-76
2022/06/04 06:03:56;;;;;;;3.60;0.70;;;28.50;58.30;;;;;;5074899;28;20366;-78
2022/06/04 06:06:29;;;;;;;0.63;0.63;;;28.60;57.70;;;;;;5075107;28;20422;-77
2022/06/04 06:08:56;;;;;;;3.28;0.60;;;28.80;57.50;;;;;;5075027;28;20036;-76
2022/06/04 06:11:22;;;;;;;1.58;0.80;;;29.00;57.30;;;;;;5075552;28;20055;-76
2022/06/04 06:13:49;;;;;;;0.43;0.43;;;29.20;56.50;;;;;;5075111;28;20492;-77
2022/06/04 06:16:21;;;;;;;0.57;0.57;;;29.40;55.20;;;;;;5075209;28;20028;-76
2022/06/04 06:18:47;;;;;;;0.80;0.55;;;29.60;55.10;;;;;;5072056;28;20028;-76
2022/06/04 06:21:19;;;;;;;0.98;0.40;;;29.70;54.10;;;;;;5074830;28;20035;-76
2022/06/04 06:23:46;;;;;;;1.20;0.60;;;29.90;53.30;;;;;;5075336;28;20029;-76
2022/06/04 06:26:19;;;;;;;1.08;0.50;;;30.00;52.70;;;;;;5074932;28;20115;-76
2022/06/04 06:28:45;;;;;;;0.52;0.52;;;30.00;53.00;;;;;;5075032;28;20106;-76
2022/06/04 06:31:14;;;;;;;0.50;0.50;;;29.90;53.00;;;;;;5074707;28;20395;-76
2022/06/04 06:33:40;;;;;;;0.65;0.63;;;29.90;52.80;;;;;;5074873;28;20346;-77
2022/06/04 06:36:09;;;;;;;0.73;0.50;;;30.00;52.70;;;;;;5075236;28;20082;-77
2022/06/04 06:38:35;;;;;;;0.67;0.60;;;30.00;52.90;;;;;;5074704;28;20032;-76
2022/06/04 06:41:02;;;;;;;0.73;0.73;;;30.10;52.80;;;;;;5074255;28;20024;-76
2022/06/04 06:43:52;;;;;;;0.63;0.60;;;30.10;52.70;;;;;;5055122;28;20523;-77
2022/06/04 06:46:29;;;;;;;0.88;0.60;;;30.20;52.00;;;;;;5054468;28;20039;-77
2022/06/04 06:49:02;;;;;;;1.40;0.65;;;30.40;51.60;;;;;;5056930;28;20111;-77
2022/06/04 06:51:34;;;;;;;0.65;0.50;;;30.60;50.60;;;;;;5054317;28;20517;-77
2022/06/04 06:54:00;;;;;;;0.65;0.60;;;30.70;51.20;;;;;;5054442;28;20029;-78
2022/06/04 06:56:29;;;;;;;0.60;0.47;;;30.70;50.80;;;;;;5054327;28;20557;-77
2022/06/04 06:58:56;;;;;;;0.50;0.50;;;30.80;50.80;;;;;;5053916;28;20094;-76
2022/06/04 07:01:24;;;;;;;1.30;0.95;;;30.70;51.20;;;;;;5054104;28;20082;-76
2022/06/04 07:03:50;;;;;;;2.28;0.75;;;30.80;51.00;;;;;;5054139;28;20032;-77
2022/06/04 07:06:39;;;;;;;0.95;0.80;;;30.80;50.60;;;;;;5053948;28;20086;-76
2022/06/04 07:09:10;;;;;;;1.00;0.70;;;30.90;50.70;;;;;;5053660;28;20365;-77
2022/06/04 07:11:36;;;;;;;1.05;0.60;;;30.90;50.70;;;;;;5053958;28;20469;-78
2022/06/04 07:14:02;;;;;;;0.60;0.60;;;31.00;50.30;;;;;;5053870;28;20025;-77
2022/06/04 07:16:27;;;;;;;1.50;0.50;;;31.20;49.90;;;;;;5054436;28;20036;-76
2022/06/04 07:18:53;;;;;;;0.82;0.63;;;31.30;49.30;;;;;;5053599;28;20415;-78
2022/06/04 07:21:19;;;;;;;0.50;0.40;;;31.40;49.00;;;;;;5061203;28;20103;-77
2022/06/04 07:23:45;;;;;;;1.00;0.80;;;31.40;49.10;;;;;;5060725;28;20048;-77
2022/06/04 07:26:12;;;;;;;1.75;0.60;;;31.60;48.70;;;;;;5053546;28;20424;-77
2022/06/04 07:28:39;;;;;;;2.05;0.90;;;31.50;48.20;;;;;;5054137;28;20151;-77
2022/06/04 07:31:06;;;;;;;0.70;0.68;;;31.60;48.40;;;;;;5053526;28;20098;-78
2022/06/04 07:33:32;;;;;;;1.15;0.90;;;31.70;48.40;;;;;;5053846;28;20087;-77
2022/06/04 07:35:59;;;;;;;1.42;0.70;;;31.90;48.10;;;;;;5053210;28;20029;-82
2022/06/04 07:38:24;;;;;;;0.57;0.57;;;32.10;48.00;;;;;;5053917;28;20037;-76
2022/06/04 07:40:50;;;;;;;0.80;0.77;;;32.30;47.90;;;;;;5053715;28;20475;-77
2022/06/04 07:43:16;;;;;;;1.10;1.00;;;32.40;47.10;;;;;;5053310;28;20190;-78
2022/06/04 07:45:42;;;;;;;0.82;0.75;;;32.50;46.50;;;;;;5053329;28;20045;-78
2022/06/04 07:48:08;;;;;;;1.80;0.85;;;32.60;46.90;;;;;;5052587;28;20025;-77
2022/06/04 07:50:35;;;;;;;1.33;0.82;;;32.60;47.00;;;;;;5053489;28;20184;-76
2022/06/04 07:53:01;;;;;;;0.98;0.88;;;32.80;46.80;;;;;;5052927;28;20084;-77
2022/06/04 07:55:27;;;;;;;1.20;0.88;;;32.90;46.60;;;;;;5053227;28;20461;-77
2022/06/04 07:57:53;;;;;;;0.80;0.80;;;33.00;46.00;;;;;;5053365;28;20029;-78
2022/06/04 08:00:19;;;;;;;0.70;0.70;;;33.30;45.80;;;;;;5052731;28;20027;-77
2022/06/04 08:02:46;;;;;;;1.10;1.00;;;33.30;44.90;;;;;;5052824;28;20462;-77
2022/06/04 08:05:13;;;;;;;1.38;1.20;;;33.50;45.40;;;;;;5052959;28;20029;-77
2022/06/04 08:07:39;;;;;;;0.88;0.70;;;33.60;45.10;;;;;;5053335;28;20029;-77
2022/06/04 08:10:08;;;;;;;1.20;0.90;;;33.60;44.10;;;;;;5052701;28;20148;-76
2022/06/04 08:12:34;;;;;;;1.10;0.90;;;33.50;43.50;;;;;;5053036;28;20079;-78
2022/06/04 08:15:03;;;;;;;1.17;1.08;;;33.30;44.40;;;;;;5052288;28;20032;-78
2022/06/04 08:17:31;;;;;;;1.00;0.90;;;33.30;44.50;;;;;;5051725;28;20032;-78
2022/06/04 08:19:57;;;;;;;1.13;0.80;;;33.30;45.20;;;;;;5052947;28;20032;-78
2022/06/04 08:22:23;;;;;;;1.17;1.08;;;33.00;44.80;;;;;;5052250;28;20021;-76
2022/06/04 08:24:49;;;;;;;1.20;0.80;;;32.60;45.30;;;;;;5052200;28;20028;-78
2022/06/04 08:27:16;;;;;;;1.17;1.08;;;32.00;46.20;;;;;;5052428;28;20457;-78
2022/06/04 08:29:42;;;;;;;1.20;1.10;;;31.50;46.80;;;;;;5054603;28;20032;-76
2022/06/04 08:32:08;;;;;;;1.10;1.00;;;31.20;47.70;;;;;;5051752;28;20345;-77
2022/06/04 08:34:34;;;;;;;1.98;1.00;;;30.90;48.80;;;;;;5052151;28;20354;-77
2022/06/04 08:37:00;;;;;;;1.15;1.05;;;30.70;49.40;;;;;;5052122;28;20021;-79
2022/06/04 08:39:27;;;;;;;1.88;1.20;;;30.60;50.00;;;;;;5052247;28;20445;-77
2022/06/04 08:42:02;;;;;;;1.52;1.10;;;30.60;50.20;;;;;;5052295;28;20095;-76
2022/06/04 08:44:41;;;;;;;1.08;0.90;;;30.60;50.70;;;;;;5053200;28;20087;-77
2022/06/04 08:47:33;;;;;;;1.40;1.20;;;30.60;50.70;;;;;;5052087;28;20445;-77
2022/06/04 08:50:17;;;;;;;0.80;0.80;;;30.50;50.70;;;;;;5051907;28;20029;-78
2022/06/04 08:52:47;;;;;;;1.15;1.00;;;30.40;50.90;;;;;;5052028;28;20028;-77
2022/06/04 08:58:36;;;;;;;1.10;1.00;;;30.30;52.10;;;;;;5051247;28;20186;-78
2022/06/04 09:01:12;;;;;;;1.00;0.90;;;30.10;51.20;;;;;;5051280;28;20032;-82
2022/06/04 09:04:01;;;;;;;2.85;1.10;;;30.00;51.90;;;;;;5051659;28;20031;-77
2022/06/04 09:06:57;;;;;;;1.23;1.13;;;29.80;52.50;;;;;;5051393;28;20032;-75
2022/06/04 09:09:32;;;;;;;0.88;0.85;;;29.80;51.90;;;;;;5050859;28;20029;-77
2022/06/04 09:12:29;;;;;;;1.52;1.23;;;29.70;52.20;;;;;;5051600;28;20032;-76
2022/06/04 09:15:05;;;;;;;2.13;0.93;;;29.60;52.50;;;;;;5051401;28;20029;-76
2022/06/04 09:17:48;;;;;;;1.17;1.08;;;29.60;53.00;;;;;;5051649;28;20082;-76
2022/06/04 09:20:32;;;;;;;1.48;0.98;;;29.60;52.90;;;;;;5050241;28;20155;-76
2022/06/04 09:23:07;;;;;;;1.50;1.10;;;29.50;51.70;;;;;;5051157;28;20491;-75
2022/06/04 09:25:45;;;;;;;1.58;1.42;;;29.40;51.50;;;;;;5051398;28;20027;-77
2022/06/04 09:28:45;;;;;;;1.95;1.00;;;29.30;52.10;;;;;;5050830;28;20453;-77
2022/06/04 09:31:17;;;;;;;1.67;1.00;;;29.20;52.70;;;;;;5024576;28;20033;-77
2022/06/04 09:33:43;;;;;;;0.98;0.93;;;29.20;54.40;;;;;;5051302;28;20048;-76
2022/06/04 09:36:16;;;;;;;1.10;0.93;;;29.20;54.70;;;;;;5050790;28;20059;-76
2022/06/04 09:38:57;;;;;;;0.80;0.80;;;29.20;54.20;;;;;;5051008;28;20104;-76
2022/06/04 09:41:25;;;;;;;1.67;1.05;;;29.30;53.60;;;;;;5051116;28;20029;-78
2022/06/04 09:44:14;;;;;;;0.80;0.80;;;29.40;53.80;;;;;;5051056;28;20079;-77
2022/06/04 09:46:46;;;;;;;1.92;0.80;;;29.50;50.10;;;;;;5050876;28;20140;-77
2022/06/04 09:49:49;;;;;;;2.05;0.75;;;29.40;48.20;;;;;;5050213;28;20126;-76
2022/06/04 09:52:21;;;;;;;0.77;0.77;;;29.50;49.70;;;;;;5050445;28;20492;-75
2022/06/04 09:55:11;;;;;;;1.20;0.80;;;29.50;51.20;;;;;;5050855;28;20466;-76
2022/06/04 09:57:37;;;;;;;1.02;0.60;;;29.60;50.40;;;;;;5050620;28;20473;-78
2022/06/04 10:00:26;;;;;;;0.93;0.60;;;29.60;49.30;;;;;;5050652;28;20061;-76
2022/06/04 10:02:54;;;;;;;0.73;0.73;;;29.70;49.00;;;;;;5050516;28;20121;-76
2022/06/04 10:05:23;;;;;;;2.13;0.95;;;29.70;48.70;;;;;;5050365;28;20119;-77
2022/06/04 10:07:49;;;;;;;0.80;0.80;;;29.70;48.30;;;;;;5049367;28;20037;-77
2022/06/04 10:10:35;;;;;;;1.10;0.82;;;29.70;48.50;;;;;;5049774;28;20033;-76
2022/06/04 10:15:56;;;;;;;0.65;0.60;;;29.70;48.40;;;;;;5050858;28;20072;-76
2022/06/04 10:18:22;;;;;;;1.50;0.75;;;29.80;48.90;;;;;;5050368;28;20029;-77
2022/06/04 10:21:21;;;;;;;2.28;0.60;;;29.80;47.70;;;;;;5050594;28;20040;-76
2022/06/04 10:23:49;;;;;;;0.45;0.40;;;29.80;47.10;;;;;;5051202;28;21502;-77
2022/06/04 10:26:46;;;;;;;0.98;0.70;;;29.90;47.00;;;;;;5051161;28;20025;-77
2022/06/04 10:29:20;;;;;;;0.77;0.60;;;29.90;47.30;;;;;;5050125;28;20039;-77
2022/06/04 10:31:51;;;;;;;1.35;0.73;;;29.90;47.60;;;;;;5053907;28;20036;-76
2022/06/04 10:34:33;;;;;;;0.70;0.70;;;30.00;47.90;;;;;;5053714;28;20017;-76
2022/06/04 10:37:28;;;;;;;0.65;0.65;;;30.00;47.80;;;;;;5054018;28;20470;-76
2022/06/04 10:40:07;;;;;;;0.95;0.60;;;29.90;48.20;;;;;;5054373;28;20083;-76
2022/06/04 10:42:46;;;;;;;3.03;0.68;;;29.90;47.60;;;;;;5053909;28;20024;-77
2022/06/04 10:45:20;;;;;;;1.95;0.77;;;30.00;48.20;;;;;;5060400;28;20047;-78
2022/06/04 10:47:55;;;;;;;0.60;0.60;;;30.00;47.80;;;;;;5073826;28;20055;-76
2022/06/04 10:53:52;;;;;;;1.35;0.60;;;30.00;47.10;;;;;;5073409;28;20028;-77
2022/06/04 10:56:24;;;;;;;0.80;0.70;;;30.00;47.10;;;;;;5073076;28;20116;-78
2022/06/04 10:59:16;;;;;;;3.53;0.80;;;30.10;47.70;;;;;;5073739;28;20029;-77
2022/06/04 11:01:54;;;;;;;0.70;0.52;;;30.00;47.60;;;;;;5073858;28;20028;-77
2022/06/04 11:04:59;;;;;;;1.08;0.70;;;30.00;47.90;;;;;;5073342;28;20031;-77
2022/06/04 11:07:54;;;;;;;0.60;0.57;;;30.00;47.40;;;;;;4991282;28;20034;-76
2022/06/04 11:10:43;;;;;;;0.50;0.50;;;30.00;48.50;;;;;;5072292;28;20052;-77
2022/06/04 11:13:21;;;;;;;1.40;0.77;;;30.00;49.50;;;;;;5072295;28;20084;-77
2022/06/04 11:16:12;;;;;;;1.60;0.73;;;30.10;48.70;;;;;;5073511;28;20039;-76
2022/06/04 11:19:10;;;;;;;0.57;0.57;;;30.10;49.30;;;;;;5073505;28;20116;-76
2022/06/04 11:22:03;;;;;;;2.03;0.85;;;30.10;49.30;;;;;;5073223;28;20459;-75
2022/06/04 11:24:35;;;;;;;1.10;0.73;;;30.30;48.40;;;;;;5059814;28;20469;-75
2022/06/04 11:27:15;;;;;;;0.55;0.55;;;30.30;48.10;;;;;;5052998;28;20458;-77
2022/06/04 11:29:41;;;;;;;1.73;0.90;;;30.40;48.20;;;;;;5053111;28;20078;-77
2022/06/04 11:32:35;;;;;;;1.20;0.90;;;30.40;47.80;;;;;;5053240;28;20033;-77
2022/06/04 11:35:08;;;;;;;3.15;0.55;;;30.30;48.40;;;;;;5053002;28;20104;-76
2022/06/04 11:37:55;;;;;;;1.80;0.90;;;30.30;49.40;;;;;;5052122;28;20021;-76
2022/06/04 11:40:37;;;;;;;2.40;1.02;;;30.30;49.30;;;;;;5056226;28;20043;-76
2022/06/04 11:43:27;;;;;;;1.20;0.90;;;30.30;48.30;;;;;;5071868;28;20116;-77
2022/06/04 11:46:19;;;;;;;1.13;0.90;;;30.30;47.60;;;;;;5072203;28;20095;-77
2022/06/04 11:48:47;;;;;;;0.85;0.85;;;30.30;47.80;;;;;;5072794;28;20091;-77
2022/06/04 11:51:31;;;;;;;2.05;1.38;;;30.30;48.00;;;;;;5072665;28;20115;-77
2022/06/04 11:53:57;;;;;;;0.98;0.85;;;30.20;47.80;;;;;;5072835;28;20491;-76
2022/06/04 11:56:26;;;;;;;0.77;0.65;;;30.20;46.60;;;;;;5072395;28;20176;-77
2022/06/04 11:59:24;;;;;;;0.88;0.82;;;30.20;47.20;;;;;;5071611;28;20029;-76
2022/06/04 12:02:12;;;;;;;1.08;0.80;;;30.10;47.70;;;;;;5072718;28;20074;-76
2022/06/04 12:05:03;;;;;;;1.60;0.80;;;30.10;48.40;;;;;;5072266;28;20035;-77
2022/06/04 12:07:33;;;;;;;;;;;30.00;48.10;;;;;;5072123;28;20059;-77
2022/06/04 12:10:20;;;;;;;0.95;0.80;;;30.00;49.70;;;;;;5072025;28;20025;-77
2022/06/04 12:12:52;;;;;;;1.58;0.70;;;30.10;48.70;;;;;;5072245;28;20153;-76
2022/06/04 12:15:21;;;;;;;0.93;0.70;;;30.00;48.10;;;;;;5070902;28;20025;-77
2022/06/04 12:17:51;;;;;;;1.08;0.77;;;30.00;48.40;;;;;;5055995;28;20054;-76
2022/06/04 12:26:29;;;;;;;0.85;0.70;;;30.00;48.30;;;;;;5058558;28;20094;-78
2022/06/04 12:28:57;;;;;;;1.20;1.10;;;29.90;47.20;;;;;;5064502;28;20029;-76
2022/06/04 12:31:43;;;;;;;0.93;0.82;;;29.90;48.20;;;;;;5061822;28;20037;-77
2022/06/04 12:34:39;;;;;;;0.75;0.65;;;29.90;48.70;;;;;;5055957;28;20361;-76
2022/06/04 12:37:20;;;;;;;1.95;0.93;;;29.90;49.00;;;;;;5041392;28;20370;-77
2022/06/04 12:39:46;;;;;;;1.95;1.27;;;29.90;47.10;;;;;;5065766;28;20131;-77
2022/06/04 12:42:20;;;;;;;1.02;0.73;;;29.90;47.80;;;;;;5071573;28;20516;-77
2022/06/04 12:45:03;;;;;;;0.60;0.60;;;29.80;48.60;;;;;;5065609;28;20041;-77
2022/06/04 12:47:32;;;;;;;2.95;1.08;;;29.90;48.90;;;;;;5051470;28;20060;-76
2022/06/04 12:50:16;;;;;;;1.15;0.80;;;29.90;48.50;;;;;;5051818;28;20052;-76
2022/06/04 12:53:02;;;;;;;1.38;0.95;;;30.00;49.50;;;;;;5051161;28;20207;-76
2022/06/04 12:55:54;;;;;;;0.98;0.80;;;30.00;48.90;;;;;;5051481;28;20017;-76
2022/06/04 12:58:29;;;;;;;0.60;0.60;;;30.10;48.40;;;;;;5051418;28;20134;-77
2022/06/04 13:01:01;;;;;;;0.75;0.75;;;30.10;48.40;;;;;;5051707;28;20030;-77
2022/06/04 13:03:37;;;;;;;1.90;0.90;;;30.10;48.70;;;;;;5051358;28;20037;-76
2022/06/04 13:06:33;;;;;;;0.88;0.75;;;30.10;48.70;;;;;;5051493;28;20527;-76
2022/06/04 13:09:17;;;;;;;2.85;1.13;;;30.20;48.20;;;;;;5048581;28;20361;-78
2022/06/04 13:11:55;;;;;;;1.35;0.80;;;30.20;48.30;;;;;;5059768;28;20028;-76
2022/06/04 13:14:35;;;;;;;1.83;1.08;;;30.20;48.40;;;;;;5059314;28;20017;-77
2022/06/04 13:17:15;;;;;;;;;;;30.20;47.60;;;;;;5062393;28;20044;-77
2022/06/04 13:19:49;;;;;;;1.05;0.75;;;30.20;48.80;;;;;;5061909;28;20409;-77
2022/06/04 13:22:28;;;;;;;0.80;0.77;;;30.20;48.50;;;;;;5061715;28;20017;-77
2022/06/04 13:24:57;;;;;;;1.00;0.82;;;30.20;47.60;;;;;;5061581;28;20067;-77
2022/06/04 13:27:44;;;;;;;1.10;0.70;;;30.20;48.80;;;;;;5062399;28;20484;-78
2022/06/04 13:30:18;;;;;;;0.75;0.70;;;30.20;48.20;;;;;;5061852;28;20055;-78
2022/06/04 13:32:44;;;;;;;1.35;1.00;;;30.30;48.20;;;;;;5061109;28;20032;-77
2022/06/04 13:35:18;;;;;;;0.75;0.70;;;30.20;47.70;;;;;;5063748;28;20024;-77
2022/06/04 13:37:45;;;;;;;0.60;0.60;;;30.20;47.50;;;;;;5058778;28;20025;-77
2022/06/04 13:40:31;;;;;;;0.70;0.60;;;30.20;48.30;;;;;;5058087;28;20109;-77